Time;durP1;ratioP1;P1;durP2;ratioP2;P2;SDS_P1;SDS_P2;PMS_P1;PMS_P2;Temp;Humidity;BMP_temperature;BMP_pressure;BME280_temperature;BME280_humidity;BME280_pressure;Samples;Min_cycle;Max_cycle;Signal;HPM_P1;HPM_P2
2024/01/24 00:01:21;;;;;;;17.80;9.20;;;;;;;-2.40;100.00;102276.30;105836;1256;59560;-80
2024/01/24 00:03:48;;;;;;;16.90;10.40;;;;;;;-2.41;100.00;102277.84;105856;1256;73020;-81
2024/01/24 00:06:17;;;;;;;18.00;10.80;;;;;;;-2.40;100.00;102273.75;105890;1251;63860;-82
2024/01/24 00:08:45;;;;;;;15.70;8.60;;;;;;;-2.38;100.00;102271.02;105798;1254;71045;-81
2024/01/24 00:11:14;;;;;;;17.90;11.00;;;;;;;-2.39;100.00;102273.08;105828;1253;60683;-82
2024/01/24 00:13:41;;;;;;;21.10;13.80;;;;;;;-2.39;100.00;102274.28;105845;1255;59741;-81
2024/01/24 00:16:09;;;;;;;20.80;10.30;;;;;;;-2.37;100.00;102270.56;105827;1251;73120;-82
2024/01/24 00:18:36;;;;;;;14.10;9.20;;;;;;;-2.33;100.00;102267.89;105900;1254;62425;-81
2024/01/24 00:21:04;;;;;;;15.30;9.80;;;;;;;-2.31;100.00;102258.35;105857;1255;72690;-82
2024/01/24 00:23:31;;;;;;;17.00;9.10;;;;;;;-2.27;100.00;102253.28;105830;1253;61724;-81
2024/01/24 00:25:59;;;;;;;13.40;9.10;;;;;;;-2.25;100.00;102255.52;105885;1251;60153;-81
2024/01/24 00:28:26;;;;;;;16.50;9.40;;;;;;;-2.27;100.00;102255.16;105829;1252;71247;-81
2024/01/24 00:30:54;;;;;;;15.40;9.90;;;;;;;-2.28;100.00;102256.67;105778;1258;63632;-82
2024/01/24 00:33:23;;;;;;;16.80;9.40;;;;;;;-2.30;100.00;102254.58;105940;1251;72690;-81
2024/01/24 00:35:51;;;;;;;17.10;10.20;;;;;;;-2.35;100.00;102250.04;105839;1255;61149;-82
2024/01/24 00:38:18;;;;;;;13.70;8.90;;;;;;;-2.41;100.00;102248.89;105950;1255;59622;-82
2024/01/24 00:40:46;;;;;;;24.10;13.30;;;;;;;-2.45;100.00;102252.41;106114;1251;72300;-81
2024/01/24 00:43:15;;;;;;;23.50;13.70;;;;;;;-2.49;100.00;102250.96;106332;1255;62644;-81
2024/01/24 00:45:43;;;;;;;17.00;10.50;;;;;;;-2.54;100.00;102253.77;106234;1251;71601;-81
2024/01/24 00:48:11;;;;;;;17.30;10.00;;;;;;;-2.60;100.00;102249.02;108017;1251;60751;-80
2024/01/24 00:50:41;;;;;;;16.90;9.40;;;;;;;-2.64;100.00;102247.41;109201;1251;59568;-80
2024/01/24 00:53:15;;;;;;;12.60;8.20;;;;;;;-2.65;100.00;102247.03;109138;1251;72108;-80
2024/01/24 00:55:46;;;;;;;15.00;8.80;;;;;;;-2.68;100.00;102243.36;107548;1253;63422;-77
2024/01/24 00:58:14;;;;;;;12.30;7.70;;;;;;;-2.69;100.00;102240.10;108036;1251;70491;-80
2024/01/24 01:00:42;;;;;;;13.70;8.00;;;;;;;-2.70;100.00;102232.40;107176;1253;61708;-81
2024/01/24 01:03:09;;;;;;;14.70;9.00;;;;;;;-2.71;100.00;102230.67;106474;1251;60423;-81
2024/01/24 01:05:38;;;;;;;14.20;8.70;;;;;;;-2.72;100.00;102229.79;106266;1252;71811;-79
2024/01/24 01:08:05;;;;;;;12.50;8.40;;;;;;;-2.71;100.00;102229.63;106128;1251;62684;-81
2024/01/24 01:10:33;;;;;;;12.60;8.20;;;;;;;-2.71;100.00;102223.31;109502;1251;71336;-81
2024/01/24 01:13:01;;;;;;;14.70;8.00;;;;;;;-2.70;100.00;102219.72;109097;1253;60420;-80
2024/01/24 01:15:29;;;;;;;13.50;8.30;;;;;;;-2.71;100.00;102217.83;108116;1251;59679;-81
2024/01/24 01:17:56;;;;;;;15.30;9.30;;;;;;;-2.69;100.00;102214.61;107642;1251;73027;-82
2024/01/24 01:20:23;;;;;;;15.60;9.30;;;;;;;-2.66;100.00;102213.98;106728;1257;63615;-81
2024/01/24 01:22:51;;;;;;;15.70;8.60;;;;;;;-2.62;100.00;102210.13;106056;1252;74690;-80
2024/01/24 01:25:18;;;;;;;12.00;7.40;;;;;;;-2.60;100.00;102203.65;105843;1254;60673;-79
2024/01/24 01:27:47;;;;;;;14.00;8.70;;;;;;;-2.62;100.00;102200.89;105951;1251;59642;-82
2024/01/24 01:30:15;;;;;;;12.70;8.80;;;;;;;-2.64;100.00;102202.21;105858;1256;71192;-81
2024/01/24 01:32:43;;;;;;;14.90;8.30;;;;;;;-2.66;100.00;102202.66;105817;1251;62399;-80
2024/01/24 01:35:11;;;;;;;15.60;8.50;;;;;;;-2.68;100.00;102204.53;105936;1252;71355;-82
2024/01/24 01:37:38;;;;;;;11.70;7.70;;;;;;;-2.70;100.00;102207.05;105869;1251;60836;-80
2024/01/24 01:40:06;;;;;;;13.90;8.70;;;;;;;-2.72;100.00;102206.15;105925;1251;59650;-80
2024/01/24 01:42:34;;;;;;;13.60;8.00;;;;;;;-2.76;100.00;102205.91;106034;1251;71839;-81
2024/01/24 01:45:03;;;;;;;10.20;7.70;;;;;;;-2.78;100.00;102202.43;105884;1251;62277;-81
2024/01/24 01:47:31;;;;;;;13.60;7.60;;;;;;;-2.80;100.00;102202.75;106237;1256;71991;-81
2024/01/24 01:49:59;;;;;;;16.40;8.70;;;;;;;-2.83;100.00;102203.35;105768;1257;60943;-80
2024/01/24 01:52:27;;;;;;;14.00;8.10;;;;;;;-2.87;100.00;102202.25;105896;1251;60550;-81
2024/01/24 01:54:54;;;;;;;12.50;7.30;;;;;;;-2.87;100.00;102198.30;105735;1260;72516;-81
2024/01/24 01:57:22;;;;;;;10.40;7.30;;;;;;;-2.89;100.00;102197.23;105896;1256;64208;-82
2024/01/24 01:59:49;;;;;;;14.40;8.60;;;;;;;-2.94;100.00;102196.46;105918;1252;71463;-80
2024/01/24 02:02:17;;;;;;;14.30;8.30;;;;;;;-2.99;100.00;102194.13;106337;1251;60767;-78
2024/01/24 02:04:44;;;;;;;12.20;8.00;;;;;;;-3.04;100.00;102195.75;109018;1251;59134;-80
2024/01/24 02:07:12;;;;;;;13.80;8.20;;;;;;;-3.08;100.00;102197.36;109150;1251;73120;-80
2024/01/24 02:09:40;;;;;;;45.30;17.00;;;;;;;-3.12;100.00;102199.31;109328;1251;62992;-80
2024/01/24 02:12:07;;;;;;;15.10;8.70;;;;;;;-3.16;100.00;102197.38;109202;1253;70132;-80
2024/01/24 02:14:34;;;;;;;14.80;11.30;;;;;;;-3.17;100.00;102199.38;106716;1251;60496;-81
2024/01/24 02:17:02;;;;;;;14.20;9.50;;;;;;;-3.20;100.00;102202.08;105950;1253;60413;-81
2024/01/24 02:19:30;;;;;;;18.20;13.60;;;;;;;-3.20;100.00;102201.54;105923;1256;73902;-82
2024/01/24 02:22:00;;;;;;;18.70;11.50;;;;;;;-3.22;100.00;102200.31;105820;1258;63638;-82
2024/01/24 02:24:27;;;;;;;20.70;13.20;;;;;;;-3.23;100.00;102201.65;105828;1251;71252;-81
2024/01/24 02:26:55;;;;;;;14.60;8.90;;;;;;;-3.23;100.00;102202.16;105976;1251;61652;-79
2024/01/24 02:29:22;;;;;;;11.10;7.70;;;;;;;-3.24;100.00;102204.02;106054;1256;60320;-82
2024/01/24 02:31:49;;;;;;;13.20;7.80;;;;;;;-3.27;100.00;102205.15;105846;1255;74593;-81
2024/01/24 02:34:17;;;;;;;13.40;8.60;;;;;;;-3.26;100.00;102205.34;105827;1256;62303;-81
2024/01/24 02:36:45;;;;;;;13.50;7.20;;;;;;;-3.25;100.00;102199.56;105854;1255;71471;-81
2024/01/24 02:39:13;;;;;;;17.10;8.80;;;;;;;-3.26;100.00;102198.00;105905;1253;60679;-81
2024/01/24 02:41:41;;;;;;;21.80;12.20;;;;;;;-3.24;100.00;102200.77;105761;1253;60518;-81
2024/01/24 02:44:09;;;;;;;34.60;17.40;;;;;;;-3.24;100.00;102193.77;105684;1253;72629;-81
2024/01/24 02:46:37;;;;;;;14.90;8.30;;;;;;;-3.20;100.00;102194.00;105697;1253;61607;-79
2024/01/24 02:49:05;;;;;;;16.10;8.10;;;;;;;-3.19;100.00;102189.77;105677;1255;72150;-81
2024/01/24 02:51:33;;;;;;;13.40;7.60;;;;;;;-3.22;100.00;102182.86;105745;1257;61944;-81
2024/01/24 02:54:01;;;;;;;14.50;8.60;;;;;;;-3.25;100.00;102176.80;105745;1257;60435;-82
2024/01/24 02:56:29;;;;;;;13.00;8.50;;;;;;;-3.26;100.00;102175.06;105751;1257;73881;-79
2024/01/24 02:58:57;;;;;;;13.00;8.00;;;;;;;-3.26;100.00;102172.52;105723;1257;62604;-80
2024/01/24 03:01:24;;;;;;;14.80;8.90;;;;;;;-3.26;100.00;102170.96;105717;1253;72752;-80
2024/01/24 03:03:52;;;;;;;18.50;9.40;;;;;;;-3.28;100.00;102169.04;105671;1254;60630;-80
2024/01/24 03:06:19;;;;;;;12.60;7.50;;;;;;;-3.33;100.00;102162.42;105690;1257;60345;-81
2024/01/24 03:08:48;;;;;;;11.30;7.40;;;;;;;-3.35;100.00;102160.68;105958;1253;74424;-81
2024/01/24 03:11:16;;;;;;;14.10;7.80;;;;;;;-3.37;100.00;102162.86;105699;1253;62394;-81
2024/01/24 03:13:44;;;;;;;10.20;6.70;;;;;;;-3.37;100.00;102164.39;105673;1258;72633;-81
2024/01/24 03:16:11;;;;;;;11.40;7.40;;;;;;;-3.36;100.00;102159.14;105754;1256;61113;-81
2024/01/24 03:18:39;;;;;;;12.50;7.00;;;;;;;-3.34;100.00;102157.63;105723;1253;60545;-82
2024/01/24 03:21:08;;;;;;;10.60;7.30;;;;;;;-3.32;100.00;102157.67;105716;1253;72612;-80
2024/01/24 03:23:39;;;;;;;11.10;6.70;;;;;;;-3.35;100.00;102159.15;105527;1253;63715;-81
2024/01/24 03:26:07;;;;;;;10.90;7.70;;;;;;;-3.37;100.00;102158.59;105697;1257;72708;-80
2024/01/24 03:28:34;;;;;;;14.30;8.20;;;;;;;-3.40;100.00;102155.29;105646;1257;61648;-81
2024/01/24 03:31:02;;;;;;;12.50;8.00;;;;;;;-3.42;100.00;102152.15;105793;1253;60417;-83
2024/01/24 03:33:30;;;;;;;13.90;7.90;;;;;;;-3.46;100.00;102151.04;105595;1257;73929;-81
2024/01/24 03:35:57;;;;;;;15.20;6.90;;;;;;;-3.47;100.00;102155.45;105664;1257;62455;-81
2024/01/24 03:38:25;;;;;;;60.10;26.70;;;;;;;-3.49;100.00;102154.58;105696;1254;71741;-81
2024/01/24 03:40:52;;;;;;;20.50;9.30;;;;;;;-3.51;100.00;102147.69;105696;1253;63978;-80
2024/01/24 03:43:20;;;;;;;13.60;10.90;;;;;;;-3.52;100.00;102147.31;105739;1253;60538;-80
2024/01/24 03:45:47;;;;;;;12.00;9.00;;;;;;;-3.52;100.00;102145.59;105828;1257;74623;-82
2024/01/24 03:48:15;;;;;;;15.00;8.70;;;;;;;-3.52;100.00;102149.02;105879;1253;63582;-82
2024/01/24 03:50:42;;;;;;;11.70;8.70;;;;;;;-3.52;100.00;102147.48;105741;1253;71564;-81
2024/01/24 03:53:10;;;;;;;15.80;9.30;;;;;;;-3.53;100.00;102139.42;105697;1253;61247;-83
2024/01/24 03:55:38;;;;;;;16.50;10.10;;;;;;;-3.55;100.00;102134.60;105773;1257;60527;-82
2024/01/24 03:58:05;;;;;;;11.30;7.10;;;;;;;-3.55;100.00;102137.50;105817;1253;73746;-82
2024/01/24 04:00:32;;;;;;;16.50;9.00;;;;;;;-3.57;100.00;102140.36;105725;1253;62694;-80
2024/01/24 04:03:00;;;;;;;11.90;7.20;;;;;;;-3.59;100.00;102142.04;105904;1256;72763;-80
2024/01/24 04:05:27;;;;;;;12.50;8.20;;;;;;;-3.60;100.00;102149.19;108282;1252;61886;-80
2024/01/24 04:07:56;;;;;;;15.20;8.00;;;;;;;-3.60;100.00;102148.33;109052;1252;59025;-82
2024/01/24 04:10:23;;;;;;;16.80;8.70;;;;;;;-3.58;100.00;102144.61;106795;1253;72497;-81
2024/01/24 04:12:51;;;;;;;12.80;8.70;;;;;;;-3.54;100.00;102142.31;105915;1253;63866;-80
2024/01/24 04:15:18;;;;;;;12.00;8.10;;;;;;;-3.50;100.00;102142.40;105820;1254;71261;-82
2024/01/24 04:17:46;;;;;;;15.20;8.60;;;;;;;-3.49;100.00;102134.89;105793;1253;61407;-80
2024/01/24 04:20:15;;;;;;;14.50;8.00;;;;;;;-3.49;100.00;102124.33;105800;1257;60435;-81
2024/01/24 04:22:42;;;;;;;13.00;8.60;;;;;;;-3.49;100.00;102123.27;105734;1257;72652;-80
2024/01/24 04:25:09;;;;;;;13.60;8.40;;;;;;;-3.50;100.00;102114.88;105740;1252;62705;-82
2024/01/24 04:27:53;;;;;;;13.30;8.60;;;;;;;-3.47;100.00;102115.79;102537;1296;601117;-81
2024/01/24 04:30:21;;;;;;;13.60;7.80;;;;;;;-3.49;100.00;102120.72;104898;1263;60495;-81
2024/01/24 04:32:49;;;;;;;11.70;7.80;;;;;;;-3.49;100.00;102124.14;105037;1268;59305;-80
2024/01/24 04:35:17;;;;;;;13.80;7.40;;;;;;;-3.51;100.00;102121.70;105548;1255;72476;-82
2024/01/24 04:37:45;;;;;;;14.40;7.70;;;;;;;-3.55;100.00;102124.85;105715;1258;62741;-83
2024/01/24 04:40:13;;;;;;;12.10;7.10;;;;;;;-3.61;100.00;102118.90;105578;1255;72999;-82
2024/01/24 04:42:40;;;;;;;16.30;8.70;;;;;;;-3.65;100.00;102115.21;105713;1253;181833;-81
2024/01/24 04:45:10;;;;;;;15.70;9.50;;;;;;;-3.69;100.00;102121.64;106418;1253;60697;-81
2024/01/24 04:47:42;;;;;;;10.50;7.10;;;;;;;-3.71;100.00;102124.12;107128;1254;72242;-83
2024/01/24 04:50:11;;;;;;;11.60;7.60;;;;;;;-3.74;100.00;102123.57;106479;1257;63047;-83
2024/01/24 04:52:39;;;;;;;15.00;7.90;;;;;;;-3.76;100.00;102126.27;106317;1257;70425;-81
2024/01/24 04:55:13;;;;;;;11.70;7.70;;;;;;;-3.78;100.00;102129.46;105759;1254;60652;-81
2024/01/24 04:57:40;;;;;;;15.10;9.20;;;;;;;-3.78;100.00;102126.54;105736;1251;60209;-81
2024/01/24 05:00:09;;;;;;;12.30;7.40;;;;;;;-3.79;100.00;102126.70;105802;1253;73011;-82
2024/01/24 05:02:37;;;;;;;13.30;9.10;;;;;;;-3.80;100.00;102125.14;106360;1253;63554;-79
2024/01/24 05:05:06;;;;;;;16.20;8.40;;;;;;;-3.84;100.00;102122.81;108510;1253;72786;-80
2024/01/24 05:07:35;;;;;;;14.00;9.20;;;;;;;-3.86;100.00;102124.81;107257;1254;60754;-81
2024/01/24 05:10:03;;;;;;;14.40;8.90;;;;;;;-3.86;100.00;102128.58;106653;1258;59637;-81
2024/01/24 05:12:31;;;;;;;16.70;9.70;;;;;;;-3.87;100.00;102134.19;106036;1252;71760;-82
2024/01/24 05:14:58;;;;;;;15.60;9.90;;;;;;;-3.88;100.00;102142.71;105910;1256;63519;-83
2024/01/24 05:17:26;;;;;;;16.30;8.90;;;;;;;-3.86;100.00;102143.44;105772;1253;74918;-81
2024/01/24 05:19:57;;;;;;;16.00;8.90;;;;;;;-3.81;100.00;102143.06;105820;1253;59866;-83
2024/01/24 05:22:24;;;;;;;10.70;8.30;;;;;;;-3.77;100.00;102149.80;105842;1257;59661;-84
2024/01/24 05:24:52;;;;;;;14.10;8.70;;;;;;;-3.75;100.00;102150.20;105795;1253;73879;-81
2024/01/24 05:27:19;;;;;;;13.60;8.30;;;;;;;-3.74;100.00;102145.95;105690;1252;63792;-82
2024/01/24 05:29:47;;;;;;;10.60;7.00;;;;;;;-3.72;100.00;102139.83;105750;1256;71751;-82
2024/01/24 05:32:14;;;;;;;12.00;8.00;;;;;;;-3.73;100.00;102136.41;105826;1252;61815;-82
2024/01/24 05:34:42;;;;;;;16.00;10.30;;;;;;;-3.77;100.00;102143.15;105825;1254;59548;-82
2024/01/24 05:37:09;;;;;;;15.80;9.60;;;;;;;-3.78;100.00;102149.10;105694;1258;71901;-84
2024/01/24 05:39:37;;;;;;;17.90;9.30;;;;;;;-3.75;100.00;102148.48;105839;1254;62317;-82
2024/01/24 05:42:05;;;;;;;18.50;10.20;;;;;;;-3.69;100.00;102133.92;106162;1258;71459;-84
2024/01/24 05:44:33;;;;;;;18.50;10.10;;;;;;;-3.64;100.00;102127.20;105764;1252;60758;-84
2024/01/24 05:47:00;;;;;;;14.60;9.90;;;;;;;-3.63;100.00;102119.55;105702;1254;59962;-81
2024/01/24 05:49:28;;;;;;;15.50;9.80;;;;;;;-3.63;100.00;102117.65;105788;1254;73119;-84
2024/01/24 05:51:56;;;;;;;17.20;9.70;;;;;;;-3.63;100.00;102115.27;105752;1253;63674;-83
2024/01/24 05:54:31;;;;;;;17.40;10.80;;;;;;;-3.59;100.00;102123.73;105822;1257;72155;-83
2024/01/24 05:57:07;;;;;;;13.40;8.40;;;;;;;-3.51;100.00;102117.23;109323;1252;60428;-83
2024/01/24 05:59:34;;;;;;;13.30;8.90;;;;;;;-3.45;100.00;102115.67;109682;1252;59062;-81
2024/01/24 06:02:03;;;;;;;14.30;8.00;;;;;;;-3.40;100.00;102115.77;109607;1252;71525;-81
2024/01/24 06:04:30;;;;;;;16.10;9.70;;;;;;;-3.42;100.00;102119.17;109223;1253;62415;-81
2024/01/24 06:07:00;;;;;;;19.20;9.80;;;;;;;-3.43;100.00;102119.30;106147;1257;71707;-83
2024/01/24 06:09:28;;;;;;;14.60;10.60;;;;;;;-3.40;100.00;102116.81;106195;1253;60999;-81
2024/01/24 06:11:56;;;;;;;14.30;9.30;;;;;;;-3.35;100.00;102117.77;106064;1257;59560;-80
2024/01/24 06:14:24;;;;;;;18.20;11.10;;;;;;;-3.28;100.00;102117.89;105858;1256;72825;-84
2024/01/24 06:16:52;;;;;;;16.70;11.50;;;;;;;-3.19;100.00;102118.61;105785;1257;62448;-84
2024/01/24 06:19:19;;;;;;;15.70;11.20;;;;;;;-3.11;100.00;102121.35;106211;1254;71476;-81
2024/01/24 06:21:46;;;;;;;15.10;8.30;;;;;;;-3.05;100.00;102120.10;105902;1254;60458;-83
2024/01/24 06:24:15;;;;;;;13.20;8.40;;;;;;;-3.05;100.00;102124.55;105819;1254;60257;-84
2024/01/24 06:26:43;;;;;;;12.10;8.10;;;;;;;-3.09;100.00;102121.39;105876;1252;73002;-83
2024/01/24 06:29:10;;;;;;;10.80;7.70;;;;;;;-3.15;100.00;102125.89;105873;1256;62352;-83
2024/01/24 06:31:37;;;;;;;11.40;7.60;;;;;;;-3.23;100.00;102121.27;105733;1256;72919;-83
2024/01/24 06:34:05;;;;;;;9.80;7.30;;;;;;;-3.30;100.00;102115.47;105892;1254;60391;-82
2024/01/24 06:36:32;;;;;;;10.30;8.30;;;;;;;-3.34;100.00;102103.77;105782;1253;59618;-82
2024/01/24 06:39:01;;;;;;;15.60;10.00;;;;;;;-3.39;100.00;102096.66;106005;1254;71884;-82
2024/01/24 06:41:30;;;;;;;12.20;8.50;;;;;;;-3.47;100.00;102094.94;105899;1259;63766;-82
2024/01/24 06:43:58;;;;;;;11.40;7.50;;;;;;;-3.50;100.00;102101.90;105759;1253;72887;-83
2024/01/24 06:46:28;;;;;;;12.70;8.70;;;;;;;-3.47;100.00;102096.98;105748;1254;60425;-82
2024/01/24 06:48:56;;;;;;;13.60;9.40;;;;;;;-3.44;100.00;102089.71;105546;1254;60665;-85
2024/01/24 06:51:24;;;;;;;15.80;9.40;;;;;;;-3.37;100.00;102094.80;105809;1256;71658;-84
2024/01/24 06:53:51;;;;;;;13.10;9.50;;;;;;;-3.28;100.00;102086.63;105946;1253;63796;-83
2024/01/24 06:56:20;;;;;;;15.70;10.50;;;;;;;-3.18;100.00;102087.34;105949;1257;72424;-82
2024/01/24 06:58:47;;;;;;;16.60;9.60;;;;;;;-3.08;100.00;102097.10;106003;1254;60737;-80
2024/01/24 07:01:15;;;;;;;18.80;10.70;;;;;;;-2.98;100.00;102097.48;107929;1253;60078;-82
2024/01/24 07:03:42;;;;;;;16.00;10.70;;;;;;;-2.86;100.00;102091.90;109258;1252;72459;-81
2024/01/24 07:06:10;;;;;;;12.60;8.70;;;;;;;-2.78;100.00;102084.54;106996;1257;63536;-82
2024/01/24 07:08:39;;;;;;;15.10;7.60;;;;;;;-2.80;100.00;102088.77;106013;1256;74364;-82
2024/01/24 07:11:09;;;;;;;13.80;9.00;;;;;;;-2.84;100.00;102087.49;105735;1253;64820;-82
2024/01/24 07:13:37;;;;;;;12.50;8.60;;;;;;;-2.87;100.00;102092.39;105728;1257;62402;-82
2024/01/24 07:16:04;;;;;;;16.90;9.00;;;;;;;-2.87;100.00;102095.14;105711;1252;74846;-81
2024/01/24 07:18:32;;;;;;;10.90;7.70;;;;;;;-2.87;100.00;102092.04;105625;1257;64157;-83
2024/01/24 07:21:02;;;;;;;10.80;7.10;;;;;;;-2.90;100.00;102082.08;105740;1254;71422;-82
2024/01/24 07:23:30;;;;;;;15.70;7.40;;;;;;;-2.96;100.00;102083.66;105695;1254;60242;-82
2024/01/24 07:26:02;;;;;;;11.50;8.40;;;;;;;-3.02;100.00;102085.44;105633;1257;59569;-84
2024/01/24 07:28:30;;;;;;;13.20;8.70;;;;;;;-3.08;100.00;102088.05;105746;1252;72906;-84
2024/01/24 07:30:58;;;;;;;13.90;9.10;;;;;;;-3.09;100.00;102092.48;105788;1257;63828;-83
2024/01/24 07:33:26;;;;;;;11.70;9.20;;;;;;;-3.06;100.00;102098.19;105734;1257;71333;-84
2024/01/24 07:35:54;;;;;;;13.60;9.80;;;;;;;-3.02;100.00;102101.17;105793;1254;61609;-85
2024/01/24 07:38:21;;;;;;;18.70;9.90;;;;;;;-3.01;100.00;102101.02;105715;1254;60230;-84
2024/01/24 07:40:48;;;;;;;13.80;9.90;;;;;;;-3.01;100.00;102102.21;105734;1254;71847;-85
2024/01/24 07:43:16;;;;;;;13.20;8.70;;;;;;;-3.01;100.00;102099.15;105666;1254;66555;-84
2024/01/24 07:45:44;;;;;;;13.50;9.30;;;;;;;-2.97;100.00;102095.80;105772;1254;73097;-84
2024/01/24 07:48:14;;;;;;;14.90;10.30;;;;;;;-2.95;100.00;102092.59;105691;1254;60482;-86
2024/01/24 07:50:42;;;;;;;12.60;8.60;;;;;;;-2.95;100.00;102090.38;105683;1257;59641;-85
2024/01/24 07:53:10;;;;;;;15.30;9.30;;;;;;;-2.94;100.00;102084.56;105829;1252;71812;-84
2024/01/24 07:55:37;;;;;;;17.10;9.70;;;;;;;-2.90;100.00;102081.73;105849;1256;63629;-85
2024/01/24 07:58:23;;;;;;;30.50;14.10;;;;;;;-2.81;100.00;102088.91;105738;1257;72906;-83
2024/01/24 08:00:51;;;;;;;11.20;8.40;;;;;;;-2.73;100.00;102089.59;105751;1257;62109;-83
2024/01/24 08:03:19;;;;;;;10.90;6.80;;;;;;;-2.67;100.00;102086.95;105923;1253;60121;-84
2024/01/24 08:05:48;;;;;;;14.40;8.60;;;;;;;-2.65;100.00;102087.33;105772;1257;73114;-83
2024/01/24 08:08:16;;;;;;;10.90;7.80;;;;;;;-2.62;100.00;102085.84;105796;1254;62283;-84
2024/01/24 08:10:43;;;;;;;13.50;8.50;;;;;;;-2.60;100.00;102076.81;105832;1254;72534;-84
2024/01/24 08:13:11;;;;;;;11.70;9.90;;;;;;;-2.58;100.00;102070.85;105677;1254;60919;-83
2024/01/24 08:15:38;;;;;;;14.70;9.50;;;;;;;-2.61;100.00;102061.56;105812;1257;60040;-84
2024/01/24 08:18:07;;;;;;;15.20;9.80;;;;;;;-2.64;100.00;102064.41;105722;1252;73782;-83
2024/01/24 08:20:35;;;;;;;17.40;9.40;;;;;;;-2.66;100.00;102063.52;105959;1253;62371;-84
2024/01/24 08:23:03;;;;;;;15.90;9.80;;;;;;;-2.61;100.00;102054.70;105894;1254;71222;-83
2024/01/24 08:25:30;;;;;;;11.20;7.90;;;;;;;-2.54;100.00;102051.23;105744;1257;60687;-83
2024/01/24 08:27:58;;;;;;;14.70;10.70;;;;;;;-2.50;100.00;102045.81;105709;1253;59972;-84
2024/01/24 08:30:25;;;;;;;16.20;8.80;;;;;;;-2.45;100.00;102039.89;105837;1253;74292;-84
2024/01/24 08:32:53;;;;;;;19.20;11.60;;;;;;;-2.38;100.00;102036.08;107191;1252;63945;-84
2024/01/24 08:35:21;;;;;;;16.30;9.80;;;;;;;-2.27;100.00;102030.27;107588;1253;71689;-82
2024/01/24 08:37:48;;;;;;;15.40;9.30;;;;;;;-2.15;100.00;102022.23;106236;1258;61097;-82
2024/01/24 08:40:17;;;;;;;13.60;8.80;;;;;;;-2.01;100.00;102015.58;105766;1253;60557;-83
2024/01/24 08:42:44;;;;;;;19.60;10.30;;;;;;;-1.88;100.00;102011.82;105805;1257;75306;-82
2024/01/24 08:45:12;;;;;;;19.80;11.40;;;;;;;-1.78;100.00;102009.89;105762;1258;63850;-84
2024/01/24 08:47:40;;;;;;;17.10;10.70;;;;;;;-1.67;100.00;101993.58;105726;1255;74869;-84
2024/01/24 08:50:08;;;;;;;12.20;8.20;;;;;;;-1.58;100.00;101992.51;106047;1258;60454;-82
2024/01/24 08:52:36;;;;;;;13.30;8.70;;;;;;;-1.53;100.00;101993.24;108182;1253;60550;-81
2024/01/24 08:55:08;;;;;;;15.40;8.60;;;;;;;-1.51;100.00;101990.52;106992;1253;72656;-81
2024/01/24 08:57:37;;;;;;;14.00;8.80;;;;;;;-1.43;100.00;101985.63;106108;1258;63718;-83
2024/01/24 09:00:07;;;;;;;10.20;8.10;;;;;;;-1.34;100.00;101981.27;106140;1253;75545;-82
2024/01/24 09:02:35;;;;;;;12.70;8.30;;;;;;;-1.23;100.00;101980.38;106533;1254;60432;-83
2024/01/24 09:05:05;;;;;;;11.70;8.10;;;;;;;-1.15;100.00;101986.11;105835;1253;60368;-82
2024/01/24 09:07:33;;;;;;;13.50;8.10;;;;;;;-1.10;100.00;101987.20;105836;1258;72568;-83
2024/01/24 09:10:00;;;;;;;10.20;7.80;;;;;;;-1.05;100.00;101991.20;105914;1253;62516;-82
2024/01/24 09:12:28;;;;;;;12.90;7.10;;;;;;;-1.02;100.00;101980.57;105695;1258;73185;-83
2024/01/24 09:14:56;;;;;;;10.60;8.10;;;;;;;-1.06;100.00;101975.23;105624;1257;60483;-83
2024/01/24 09:17:24;;;;;;;10.60;8.50;;;;;;;-1.19;100.00;101974.92;105873;1254;60357;-81
2024/01/24 09:19:52;;;;;;;14.00;8.30;;;;;;;-1.30;100.00;101973.95;105752;1253;73966;-84
2024/01/24 09:22:20;;;;;;;13.70;8.90;;;;;;;-1.33;100.00;101972.72;105506;1261;62464;-82
2024/01/24 09:24:47;;;;;;;13.30;8.50;;;;;;;-1.29;100.00;101973.45;105622;1260;71801;-82
2024/01/24 09:27:18;;;;;;;15.80;9.20;;;;;;;-1.27;100.00;101966.43;106085;1254;62538;-81
2024/01/24 09:29:45;;;;;;;10.90;7.90;;;;;;;-1.32;100.00;101965.00;105721;1257;60708;-83
2024/01/24 09:32:13;;;;;;;13.20;8.50;;;;;;;-1.33;100.00;101969.11;105822;1252;72656;-82
2024/01/24 09:34:41;;;;;;;9.00;7.30;;;;;;;-1.28;100.00;101963.84;105841;1257;61650;-80
2024/01/24 09:37:09;;;;;;;13.10;8.20;;;;;;;-1.24;100.00;101950.33;105801;1256;71817;-82
2024/01/24 09:39:37;;;;;;;12.30;8.10;;;;;;;-1.22;100.00;101941.09;105761;1256;60622;-83
2024/01/24 09:42:04;;;;;;;10.30;7.10;;;;;;;-1.20;100.00;101923.78;106067;1255;60377;-84
2024/01/24 09:44:34;;;;;;;14.80;8.60;;;;;;;-1.18;100.00;101915.39;105857;1254;74833;-83
2024/01/24 09:47:02;;;;;;;8.80;6.80;;;;;;;-1.16;100.00;101915.40;106373;1259;63056;-83
2024/01/24 09:49:31;;;;;;;11.50;7.10;;;;;;;-1.17;100.00;101914.20;109242;1253;72985;-81
2024/01/24 09:51:59;;;;;;;13.40;6.80;;;;;;;-1.19;100.00;101917.10;109521;1252;60538;-82
2024/01/24 09:54:27;;;;;;;9.10;6.60;;;;;;;-1.20;100.00;101914.34;108385;1254;60358;-84
2024/01/24 09:58:16;;;;;;;13.20;7.80;;;;;;;-1.12;100.00;101903.43;103740;1286;601684;-82
2024/01/24 10:00:44;;;;;;;12.00;7.40;;;;;;;-1.04;100.00;101902.98;105467;1267;59330;-82
2024/01/24 10:03:11;;;;;;;10.20;7.00;;;;;;;-0.92;100.00;101893.46;105828;1254;60592;-82
2024/01/24 10:05:40;;;;;;;10.50;7.60;;;;;;;-0.80;100.00;101894.27;105870;1254;71339;-83
2024/01/24 10:08:10;;;;;;;11.90;7.80;;;;;;;-0.72;100.00;101890.20;105721;1254;62951;-82
2024/01/24 10:10:36;;;;;;;11.80;7.30;;;;;;;-0.64;100.00;101876.69;105492;1254;180251;-82
2024/01/24 10:13:04;;;;;;;9.80;7.00;;;;;;;-0.59;100.00;101869.51;105965;1254;61415;-82
2024/01/24 10:15:31;;;;;;;11.40;6.80;;;;;;;-0.58;100.00;101873.28;105953;1257;59975;-81
2024/01/24 10:17:58;;;;;;;9.40;7.80;;;;;;;-0.54;100.00;101875.71;105687;1253;71169;-81
2024/01/24 10:20:25;;;;;;;13.80;8.80;;;;;;;-0.50;100.00;101873.67;105768;1260;65065;-82
2024/01/24 10:22:53;;;;;;;8.80;7.30;;;;;;;-0.45;100.00;101878.35;105724;1252;73082;-82
2024/01/24 10:25:21;;;;;;;16.40;8.70;;;;;;;-0.40;100.00;101877.86;105831;1259;60809;-83
2024/01/24 10:27:48;;;;;;;17.60;10.60;;;;;;;-0.33;100.00;101872.40;105909;1256;59643;-81
2024/01/24 10:30:15;;;;;;;13.90;8.20;;;;;;;-0.26;100.00;101874.32;105966;1255;72713;-82
2024/01/24 10:32:46;;;;;;;13.30;8.00;;;;;;;-0.24;100.00;101865.05;106004;1257;62868;-83
2024/01/24 10:35:16;;;;;;;10.80;7.40;;;;;;;-0.18;100.00;101874.02;106027;1256;71518;-82
2024/01/24 10:37:44;;;;;;;13.50;7.60;;;;;;;-0.10;100.00;101872.67;105880;1253;59739;-82
2024/01/24 10:40:13;;;;;;;13.80;8.40;;;;;;;-0.01;100.00;101873.06;105883;1257;60564;-80
2024/01/24 10:42:41;;;;;;;9.30;7.50;;;;;;;0.02;100.00;101864.98;105972;1254;74196;-81
2024/01/24 10:45:09;;;;;;;14.20;8.50;;;;;;;0.00;100.00;101863.79;106005;1252;63988;-81
2024/01/24 10:47:36;;;;;;;15.40;7.60;;;;;;;0.02;100.00;101853.65;106123;1257;71227;-82
2024/01/24 10:50:04;;;;;;;9.20;7.00;;;;;;;0.08;100.00;101841.11;105941;1257;62113;-81
2024/01/24 10:52:33;;;;;;;8.70;6.90;;;;;;;0.05;100.00;101835.60;106001;1257;60317;-82
2024/01/24 10:55:05;;;;;;;9.90;6.90;;;;;;;-0.00;100.00;101833.34;105953;1257;73382;-80
2024/01/24 10:57:34;;;;;;;13.40;8.10;;;;;;;-0.07;100.00;101836.26;105943;1257;61899;-82
2024/01/24 11:00:05;;;;;;;10.80;8.30;;;;;;;-0.11;100.00;101827.48;106007;1257;72623;-82
2024/01/24 11:02:32;;;;;;;13.70;7.40;;;;;;;-0.13;100.00;101814.73;105856;1257;61670;-82
2024/01/24 11:05:04;;;;;;;12.60;8.80;;;;;;;-0.18;100.00;101809.91;105960;1256;61316;-82
2024/01/24 11:07:37;;;;;;;9.50;7.60;;;;;;;-0.19;100.00;101797.54;105834;1257;74337;-83